Time;durP1;ratioP1;P1;durP2;ratioP2;P2;SDS_P1;SDS_P2;PMS_P1;PMS_P2;Temp;Humidity;BMP_temperature;BMP_pressure;BME280_temperature;BME280_humidity;BME280_pressure;Samples;Min_cycle;Max_cycle;Signal;HPM_P1;HPM_P2
2022/03/24 00:00:16;;;;;;;129.00;62.90;;;;;;;4.13;26.25;99790.02;105741;1278;99220;-67
2022/03/24 00:03:07;;;;;;;137.30;63.20;;;;;;;4.06;26.29;99794.65;105763;1277;109769;-63
2022/03/24 00:05:37;;;;;;;130.20;61.80;;;;;;;4.02;26.19;99796.72;105783;1278;99342;-61
2022/03/24 00:08:06;;;;;;;105.60;52.40;;;;;;;4.00;26.72;99796.09;105912;1277;97719;-63
2022/03/24 00:10:36;;;;;;;107.00;53.00;;;;;;;3.97;26.35;99792.34;105879;1277;113373;-66
2022/03/24 00:13:05;;;;;;;103.80;51.20;;;;;;;3.95;26.73;99789.57;105942;1277;97828;-63
2022/03/24 00:15:35;;;;;;;104.30;48.40;;;;;;;3.93;26.74;99789.31;105885;1277;108438;-65
2022/03/24 00:18:03;;;;;;;106.20;51.00;;;;;;;3.90;26.80;99788.67;105854;1278;99093;-65
2022/03/24 00:20:37;;;;;;;107.30;50.80;;;;;;;3.91;26.85;99787.79;105943;1277;99201;-64
2022/03/24 00:23:05;;;;;;;120.50;54.60;;;;;;;3.92;26.84;99787.03;105933;1277;112746;-66
2022/03/24 00:25:33;;;;;;;106.80;52.10;;;;;;;3.96;26.94;99786.73;105913;1277;99302;-65
2022/03/24 00:28:06;;;;;;;106.60;52.30;;;;;;;4.03;27.10;99788.25;105863;1277;110392;-64
2022/03/24 00:30:35;;;;;;;122.00;58.10;;;;;;;4.08;27.24;99785.63;105904;1277;99224;-63
2022/03/24 00:33:05;;;;;;;119.90;58.10;;;;;;;4.10;27.17;99783.79;105919;1277;100244;-69
2022/03/24 00:35:37;;;;;;;116.40;54.00;;;;;;;4.13;27.05;99780.02;105893;1277;113321;-66
2022/03/24 00:38:07;;;;;;;105.60;49.20;;;;;;;4.16;27.47;99779.55;105942;1277;99258;-65
2022/03/24 00:40:35;;;;;;;94.80;47.80;;;;;;;4.19;27.55;99781.21;105904;1277;108977;-66
2022/03/24 00:43:05;;;;;;;105.00;49.00;;;;;;;4.22;27.66;99777.26;105944;1277;99348;-66
2022/03/24 00:45:40;;;;;;;82.20;39.30;;;;;;;4.25;27.48;99776.78;105970;1278;97669;-66
2022/03/24 00:48:09;;;;;;;79.10;38.90;;;;;;;4.30;27.50;99778.56;105879;1277;113861;-66
2022/03/24 00:50:38;;;;;;;71.10;36.30;;;;;;;4.37;27.70;99780.42;105911;1277;97743;-67
2022/03/24 00:53:06;;;;;;;79.60;37.70;;;;;;;4.44;27.42;99775.07;105893;1277;108339;-68
2022/03/24 00:55:35;;;;;;;117.80;54.90;;;;;;;4.53;27.57;99776.52;105876;1277;96543;-68
2022/03/24 00:58:04;;;;;;;102.60;47.90;;;;;;;4.56;27.68;99779.38;105781;1278;99918;-68
2022/03/24 01:00:36;;;;;;;103.80;52.00;;;;;;;4.56;27.50;99781.32;105847;1277;113328;-67
2022/03/24 01:03:06;;;;;;;97.80;50.50;;;;;;;4.53;27.84;99779.12;105917;1277;99265;-67
2022/03/24 01:05:37;;;;;;;97.10;48.40;;;;;;;4.51;27.85;99779.02;105916;1278;108334;-67
2022/03/24 01:08:09;;;;;;;107.90;51.10;;;;;;;4.48;27.78;99778.61;105887;1277;97948;-67
2022/03/24 01:10:37;;;;;;;108.50;52.60;;;;;;;4.44;27.67;99778.41;105873;1277;99221;-67
2022/03/24 01:13:05;;;;;;;108.90;49.00;;;;;;;4.42;27.99;99780.59;105850;1277;113412;-67
2022/03/24 01:15:34;;;;;;;93.60;45.00;;;;;;;4.43;27.93;99780.02;105885;1277;97818;-68
2022/03/24 01:18:05;;;;;;;88.20;42.70;;;;;;;4.45;27.95;99774.89;105866;1277;108225;-66
2022/03/24 01:20:40;;;;;;;84.00;42.80;;;;;;;4.47;28.12;99778.30;105823;1278;99242;-69
2022/03/24 01:23:11;;;;;;;85.60;43.40;;;;;;;4.52;27.81;99781.98;105817;1278;99237;-67
2022/03/24 01:25:42;;;;;;;79.10;38.00;;;;;;;4.57;28.30;99776.34;105891;1277;115574;-70
2022/03/24 01:28:14;;;;;;;78.20;39.30;;;;;;;4.61;28.22;99775.16;105901;1278;97760;-67
2022/03/24 01:30:43;;;;;;;88.80;42.70;;;;;;;4.64;28.36;99776.64;105820;1277;108382;-67
2022/03/24 01:33:11;;;;;;;89.50;43.70;;;;;;;4.65;28.11;99777.65;105832;1277;99423;-66
2022/03/24 01:35:39;;;;;;;76.90;41.10;;;;;;;4.63;28.36;99772.11;105908;1277;97645;-66
2022/03/24 01:38:07;;;;;;;100.70;46.70;;;;;;;4.64;28.24;99778.20;105899;1277;113059;-65
2022/03/24 01:40:35;;;;;;;78.70;39.70;;;;;;;4.66;28.48;99775.88;105838;1277;99173;-68
2022/03/24 01:43:04;;;;;;;84.20;41.90;;;;;;;4.69;28.40;99773.61;105809;1277;108088;-65
2022/03/24 01:45:34;;;;;;;78.00;37.80;;;;;;;4.71;28.55;99776.88;105873;1277;99969;-66
2022/03/24 01:48:08;;;;;;;76.40;39.60;;;;;;;4.74;28.44;99774.88;105779;1278;97662;-67
2022/03/24 01:50:37;;;;;;;76.50;40.00;;;;;;;4.77;28.68;99777.55;105785;1277;113083;-65
2022/03/24 01:53:09;;;;;;;70.70;36.70;;;;;;;4.81;28.67;99775.49;105740;1277;99202;-66
2022/03/24 01:55:39;;;;;;;70.90;37.80;;;;;;;4.85;28.78;99775.16;105920;1277;108199;-66
2022/03/24 01:58:13;;;;;;;75.80;37.70;;;;;;;4.89;28.91;99777.26;105840;1278;99244;-67
2022/03/24 02:00:44;;;;;;;74.60;37.20;;;;;;;4.93;28.91;99776.25;105921;1277;96512;-66
2022/03/24 02:03:16;;;;;;;72.90;39.70;;;;;;;4.96;28.66;99780.35;105791;1277;113464;-66
2022/03/24 02:05:47;;;;;;;76.60;40.20;;;;;;;4.99;28.83;99780.25;105830;1277;96544;-65
2022/03/24 02:08:17;;;;;;;68.70;35.50;;;;;;;5.00;28.77;99780.90;105934;1277;108383;-67
2022/03/24 02:10:45;;;;;;;70.20;36.30;;;;;;;5.03;28.93;99778.52;105902;1277;96632;-68
2022/03/24 02:13:13;;;;;;;77.00;38.40;;;;;;;5.07;28.82;99782.08;105869;1277;99197;-69
2022/03/24 02:15:41;;;;;;;74.20;37.20;;;;;;;5.10;28.99;99786.35;106005;1277;112353;-68
2022/03/24 02:18:14;;;;;;;69.50;37.60;;;;;;;5.12;28.89;99785.91;105948;1277;99361;-68
2022/03/24 02:20:45;;;;;;;73.20;37.60;;;;;;;5.13;29.18;99783.05;105914;1277;108348;-66
2022/03/24 02:23:15;;;;;;;71.50;37.20;;;;;;;5.15;29.07;99787.38;105826;1278;99249;-64
2022/03/24 02:25:46;;;;;;;66.40;37.10;;;;;;;5.16;29.15;99789.60;105956;1277;99191;-66
2022/03/24 02:28:14;;;;;;;69.50;37.70;;;;;;;5.18;29.14;99788.85;105898;1277;113332;-66
2022/03/24 02:30:47;;;;;;;73.10;39.20;;;;;;;5.20;29.27;99793.51;105849;1277;99253;-66
2022/03/24 02:33:22;;;;;;;74.00;40.00;;;;;;;5.23;29.25;99794.98;105846;1277;108322;-66
2022/03/24 02:35:53;;;;;;;73.00;36.70;;;;;;;5.24;29.34;99795.48;105972;1277;99192;-67
2022/03/24 02:38:21;;;;;;;72.60;38.50;;;;;;;5.25;29.29;99792.98;106009;1277;99249;-65
2022/03/24 02:40:51;;;;;;;76.50;40.60;;;;;;;5.26;29.31;99796.47;105931;1277;113436;-68
2022/03/24 02:43:21;;;;;;;73.00;39.10;;;;;;;5.25;29.56;99800.00;105819;1277;98443;-67
2022/03/24 02:45:50;;;;;;;73.10;40.20;;;;;;;5.25;29.47;99803.69;105921;1277;107354;-66
2022/03/24 02:48:23;;;;;;;71.00;38.10;;;;;;;5.25;29.52;99808.83;105906;1277;99297;-67
2022/03/24 02:50:51;;;;;;;67.60;36.40;;;;;;;5.24;29.55;99809.73;105951;1277;99312;-68
2022/03/24 02:53:19;;;;;;;71.90;37.50;;;;;;;5.22;29.44;99807.34;105914;1277;113471;-68
2022/03/24 02:55:47;;;;;;;70.90;37.60;;;;;;;5.22;29.55;99810.16;105829;1277;97743;-67
2022/03/24 02:58:15;;;;;;;75.20;39.50;;;;;;;5.20;29.68;99814.08;105853;1277;107758;-68
2022/03/24 03:00:45;;;;;;;71.10;39.80;;;;;;;5.16;29.63;99815.11;105850;1277;99943;-68
2022/03/24 03:03:15;;;;;;;78.20;40.10;;;;;;;5.13;29.59;99820.86;105955;1277;97868;-67
2022/03/24 03:05:45;;;;;;;70.50;38.80;;;;;;;5.10;29.68;99821.84;105917;1277;113248;-67
2022/03/24 03:08:19;;;;;;;72.20;39.00;;;;;;;5.08;29.82;99824.42;105908;1277;99258;-67
2022/03/24 03:10:47;;;;;;;75.20;39.80;;;;;;;5.07;29.77;99826.19;105963;1277;107752;-65
2022/03/24 03:13:17;;;;;;;73.40;39.00;;;;;;;5.05;29.90;99826.25;105987;1277;99273;-66
2022/03/24 03:15:47;;;;;;;76.90;40.30;;;;;;;5.04;29.90;99825.59;105999;1277;99338;-66
2022/03/24 03:18:19;;;;;;;71.90;37.00;;;;;;;5.05;29.72;99828.73;105958;1277;113146;-68
2022/03/24 03:20:48;;;;;;;75.10;39.80;;;;;;;5.05;29.97;99829.26;105854;1277;96731;-67
2022/03/24 03:23:18;;;;;;;73.90;37.70;;;;;;;5.04;30.02;99827.88;105904;1277;108465;-66
2022/03/24 03:25:48;;;;;;;75.20;38.90;;;;;;;5.03;30.22;99833.38;105819;1277;97854;-66
2022/03/24 03:28:19;;;;;;;71.70;37.80;;;;;;;5.02;30.02;99837.81;105940;1277;99299;-66
2022/03/24 03:30:47;;;;;;;74.60;40.10;;;;;;;4.97;30.11;99841.85;105795;1277;113371;-67
2022/03/24 03:33:18;;;;;;;71.60;37.60;;;;;;;4.92;30.24;99846.05;105832;1277;96716;-66
2022/03/24 03:35:52;;;;;;;74.70;38.40;;;;;;;4.89;30.21;99845.48;105820;1278;108421;-67
2022/03/24 03:38:23;;;;;;;70.00;38.50;;;;;;;4.84;30.15;99849.89;105584;1278;99323;-68
2022/03/24 03:40:52;;;;;;;74.20;39.10;;;;;;;4.80;30.00;99848.46;105830;1278;99789;-69
2022/03/24 03:43:23;;;;;;;70.40;38.90;;;;;;;4.75;30.11;99853.15;105797;1278;113020;-66
2022/03/24 03:45:53;;;;;;;74.40;40.40;;;;;;;4.69;30.27;99850.94;105904;1277;99248;-65
2022/03/24 03:48:26;;;;;;;78.40;40.20;;;;;;;4.62;30.32;99850.31;105968;1277;108445;-65
2022/03/24 03:50:54;;;;;;;77.00;39.60;;;;;;;4.54;30.59;99850.23;105994;1277;99230;-66
2022/03/24 03:53:24;;;;;;;74.80;39.20;;;;;;;4.49;30.40;99854.82;105947;1277;98375;-65
2022/03/24 03:55:55;;;;;;;75.60;41.50;;;;;;;4.45;30.37;99854.75;105879;1277;113514;-67
2022/03/24 03:58:24;;;;;;;81.60;42.20;;;;;;;4.44;30.48;99857.63;105895;1277;99225;-68
2022/03/24 04:00:52;;;;;;;77.90;40.80;;;;;;;4.42;30.59;99856.98;105786;1277;108508;-67
2022/03/24 04:03:24;;;;;;;80.80;40.00;;;;;;;4.42;30.66;99858.58;105940;1277;100441;-66
2022/03/24 04:06:01;;;;;;;75.80;41.80;;;;;;;4.39;30.55;99860.42;105862;1277;97719;-66
2022/03/24 04:08:29;;;;;;;76.90;38.90;;;;;;;4.37;30.79;99859.95;105811;1277;113376;-65
2022/03/24 04:11:03;;;;;;;76.30;38.00;;;;;;;4.35;30.59;99862.82;105873;1277;99065;-65
2022/03/24 04:13:31;;;;;;;;;;;;;;;4.33;30.78;99865.88;105815;1277;107759;-66
2022/03/24 04:16:06;;;;;;;72.60;38.00;;;;;;;4.28;30.69;99871.66;105877;1277;100369;-64
2022/03/24 04:18:34;;;;;;;74.10;37.10;;;;;;;4.28;30.68;99870.98;105814;1277;99284;-65
2022/03/24 04:21:03;;;;;;;75.50;39.20;;;;;;;4.27;30.75;99871.73;105866;1277;113401;-66
2022/03/24 04:23:31;;;;;;;72.90;38.10;;;;;;;4.25;30.58;99874.60;105925;1277;99223;-67
2022/03/24 04:25:59;;;;;;;72.60;39.00;;;;;;;4.22;30.66;99872.23;105726;1277;107696;-67
2022/03/24 04:28:27;;;;;;;75.80;40.10;;;;;;;4.19;30.79;99871.64;105836;1277;99337;-67
2022/03/24 04:30:55;;;;;;;66.20;37.40;;;;;;;4.14;30.89;99875.48;105785;1277;96729;-69
2022/03/24 04:33:23;;;;;;;75.10;40.30;;;;;;;4.11;31.04;99884.02;105810;1277;113372;-67
2022/03/24 04:35:53;;;;;;;73.30;39.20;;;;;;;4.09;31.01;99887.56;105815;1277;96886;-66
2022/03/24 04:38:21;;;;;;;78.40;40.80;;;;;;;4.07;31.20;99885.00;105773;1278;108887;-66
2022/03/24 04:40:52;;;;;;;70.90;38.40;;;;;;;4.05;31.26;99891.73;105801;1278;99292;-67
2022/03/24 04:43:22;;;;;;;72.50;37.60;;;;;;;4.03;31.17;99893.74;105831;1277;99322;-66
2022/03/24 04:45:54;;;;;;;71.90;37.80;;;;;;;4.01;31.45;99893.10;105890;1277;113343;-65
2022/03/24 04:48:25;;;;;;;71.00;37.30;;;;;;;4.01;31.56;99896.27;105909;1277;99301;-67
2022/03/24 04:50:56;;;;;;;73.10;36.80;;;;;;;4.00;31.06;99896.13;105805;1279;107719;-69
2022/03/24 04:53:24;;;;;;;77.50;37.80;;;;;;;3.97;31.32;99899.19;105845;1277;99102;-68
2022/03/24 04:55:54;;;;;;;81.70;39.90;;;;;;;3.96;31.78;99901.34;105913;1277;99208;-68
2022/03/24 04:58:22;;;;;;;71.80;37.30;;;;;;;3.96;31.60;99899.58;105937;1277;113358;-70
2022/03/24 05:00:52;;;;;;;67.40;37.50;;;;;;;3.96;31.74;99900.45;105945;1277;97696;-69
2022/03/24 05:03:22;;;;;;;72.70;37.60;;;;;;;3.96;31.81;99899.75;105835;1277;108579;-68
2022/03/24 05:05:50;;;;;;;76.80;37.20;;;;;;;3.95;31.66;99901.88;105656;1277;99318;-66
2022/03/24 05:08:18;;;;;;;69.40;36.60;;;;;;;3.94;31.83;99901.92;105804;1277;99257;-66
2022/03/24 05:10:46;;;;;;;67.00;36.10;;;;;;;3.92;31.81;99903.20;105764;1277;113388;-67
2022/03/24 05:13:14;;;;;;;67.70;37.20;;;;;;;3.91;31.69;99903.77;105786;1277;99231;-68
2022/03/24 05:15:42;;;;;;;71.40;37.70;;;;;;;3.90;31.73;99906.79;105793;1277;108305;-68
2022/03/24 05:18:11;;;;;;;70.60;37.60;;;;;;;3.86;32.15;99910.42;105756;1277;99192;-69
2022/03/24 05:20:41;;;;;;;66.50;36.30;;;;;;;3.86;32.16;99913.05;106008;1276;99346;-69
2022/03/24 05:23:09;;;;;;;68.70;36.30;;;;;;;3.87;31.98;99918.47;105931;1277;113619;-68
2022/03/24 05:25:38;;;;;;;71.20;37.50;;;;;;;3.88;32.33;99918.25;105913;1277;96544;-71
2022/03/24 05:28:09;;;;;;;69.20;38.20;;;;;;;3.88;32.47;99919.83;105910;1277;107402;-70
2022/03/24 05:30:37;;;;;;;72.00;36.80;;;;;;;3.89;32.56;99921.91;105872;1277;99217;-68
2022/03/24 05:33:08;;;;;;;70.30;37.20;;;;;;;3.89;32.46;99919.27;105837;1277;97695;-65
2022/03/24 05:35:36;;;;;;;80.10;37.30;;;;;;;3.93;32.43;99923.70;105878;1277;113361;-69
2022/03/24 05:38:05;;;;;;;71.10;35.90;;;;;;;3.96;32.33;99925.90;105942;1277;99273;-67
2022/03/24 05:40:36;;;;;;;63.90;34.50;;;;;;;3.97;32.63;99928.33;105864;1276;108219;-68
2022/03/24 05:43:04;;;;;;;68.10;36.90;;;;;;;3.97;32.61;99928.14;105947;1277;99266;-67
2022/03/24 05:45:32;;;;;;;79.00;38.20;;;;;;;3.98;32.82;99928.29;105891;1277;99955;-68
2022/03/24 05:48:04;;;;;;;69.50;35.70;;;;;;;4.00;32.67;99932.60;105869;1277;113470;-67
2022/03/24 05:50:32;;;;;;;72.60;37.10;;;;;;;4.02;32.91;99933.43;105890;1277;96559;-68
2022/03/24 05:53:01;;;;;;;69.40;36.10;;;;;;;4.05;32.68;99934.92;105891;1277;109410;-69
2022/03/24 05:55:36;;;;;;;73.90;37.40;;;;;;;4.06;32.92;99935.25;105857;1277;96662;-67
2022/03/24 05:58:06;;;;;;;64.90;34.60;;;;;;;4.08;32.90;99938.67;105949;1277;99210;-67
2022/03/24 06:00:41;;;;;;;62.40;34.90;;;;;;;4.10;32.99;99938.64;105945;1277;113321;-65
2022/03/24 06:03:09;;;;;;;63.40;34.30;;;;;;;4.13;33.18;99939.77;105986;1277;99211;-67
2022/03/24 06:05:40;;;;;;;61.00;33.20;;;;;;;4.16;33.01;99945.80;105987;1277;106126;-71
2022/03/24 06:08:11;;;;;;;65.50;35.10;;;;;;;4.20;33.06;99945.67;105969;1277;99297;-68
2022/03/24 06:10:46;;;;;;;63.20;34.10;;;;;;;4.24;32.74;99946.61;105914;1277;100005;-67
2022/03/24 06:13:15;;;;;;;65.40;33.00;;;;;;;4.29;33.02;99948.55;105827;1277;113230;-67
2022/03/24 06:15:43;;;;;;;57.50;31.80;;;;;;;4.34;33.24;99951.91;105849;1277;97915;-67
2022/03/24 06:18:15;;;;;;;56.40;29.90;;;;;;;4.38;33.31;99954.23;105845;1277;108466;-67
2022/03/24 06:20:52;;;;;;;58.60;31.10;;;;;;;4.43;33.35;99957.06;105824;1277;99198;-67
2022/03/24 06:23:22;;;;;;;54.60;29.50;;;;;;;4.47;33.29;99955.33;105898;1277;99236;-65
2022/03/24 06:25:50;;;;;;;54.20;28.30;;;;;;;4.53;33.33;99956.55;105900;1277;112856;-68
2022/03/24 06:28:20;;;;;;;59.20;31.30;;;;;;;4.59;33.40;99956.52;105929;1277;96710;-65
2022/03/24 06:30:52;;;;;;;57.80;29.70;;;;;;;4.64;33.35;99956.89;105910;1277;108484;-67
2022/03/24 06:33:23;;;;;;;58.10;30.90;;;;;;;4.68;33.24;99961.31;105862;1277;97769;-68
2022/03/24 06:35:51;;;;;;;57.80;29.90;;;;;;;4.74;33.56;99963.92;105848;1277;99232;-67
2022/03/24 06:38:22;;;;;;;61.30;30.80;;;;;;;4.78;33.82;99958.51;105876;1277;113270;-68
2022/03/24 06:40:52;;;;;;;62.90;31.50;;;;;;;4.84;33.60;99959.02;105838;1277;96616;-67
2022/03/24 06:43:20;;;;;;;60.20;32.60;;;;;;;4.89;33.91;99958.50;105803;1277;108001;-64
2022/03/24 06:45:48;;;;;;;61.70;33.00;;;;;;;4.94;33.86;99961.65;105825;1277;99297;-66
2022/03/24 06:48:19;;;;;;;56.40;31.20;;;;;;;4.99;34.18;99965.17;105841;1277;98887;-67
2022/03/24 06:50:46;;;;;;;56.20;30.60;;;;;;;5.03;34.09;99966.95;105858;1277;113429;-68
2022/03/24 06:53:16;;;;;;;57.80;31.50;;;;;;;5.08;34.08;99960.64;105963;1277;99403;-68
2022/03/24 06:55:43;;;;;;;59.80;31.10;;;;;;;5.13;34.04;99962.56;105972;1277;108459;-67
2022/03/24 06:58:11;;;;;;;54.60;31.30;;;;;;;5.19;33.92;99966.22;105850;1277;97696;-68
2022/03/24 07:00:42;;;;;;;59.10;30.50;;;;;;;5.27;34.20;99968.95;105889;1277;99168;-68
2022/03/24 07:03:13;;;;;;;56.80;30.30;;;;;;;5.34;33.87;99972.89;105864;1277;112748;-67
2022/03/24 07:05:43;;;;;;;51.70;30.20;;;;;;;5.41;34.08;99974.77;105865;1277;99297;-70
2022/03/24 07:08:11;;;;;;;54.60;30.60;;;;;;;5.46;34.11;99976.50;105948;1277;107232;-71
2022/03/24 07:10:46;;;;;;;57.20;28.90;;;;;;;5.52;34.41;99974.54;105850;1274;99301;-69
2022/03/24 07:13:17;;;;;;;51.10;30.40;;;;;;;5.58;34.47;99973.25;105921;1277;99235;-66
2022/03/24 07:15:46;;;;;;;55.10;28.90;;;;;;;5.64;34.40;99977.05;105848;1277;113120;-67
2022/03/24 07:18:15;;;;;;;55.90;28.70;;;;;;;5.70;34.45;99977.58;105938;1277;99205;-67
2022/03/24 07:20:46;;;;;;;52.60;27.80;;;;;;;5.76;34.61;99976.64;105841;1277;108302;-67
2022/03/24 07:23:17;;;;;;;52.40;26.70;;;;;;;5.83;34.82;99976.17;105788;1277;99237;-67
2022/03/24 07:25:45;;;;;;;50.90;27.90;;;;;;;5.92;34.70;99980.57;105819;1278;97710;-66
2022/03/24 07:28:14;;;;;;;46.10;25.70;;;;;;;6.00;34.89;99982.24;105813;1277;113384;-67
2022/03/24 07:30:50;;;;;;;50.10;27.50;;;;;;;6.07;34.66;99986.57;105840;1277;99322;-68
2022/03/24 07:33:22;;;;;;;53.50;26.30;;;;;;;6.14;35.01;99985.75;105833;1277;107838;-68
2022/03/24 07:35:49;;;;;;;46.60;26.00;;;;;;;6.23;34.97;99991.22;105774;1277;99085;-68
2022/03/24 07:38:22;;;;;;;45.20;23.50;;;;;;;6.31;34.87;99991.94;105755;1277;99950;-67
2022/03/24 07:40:54;;;;;;;41.10;23.20;;;;;;;6.42;35.19;99992.58;105816;1278;112801;-66
2022/03/24 07:43:23;;;;;;;42.10;23.50;;;;;;;6.53;35.06;99994.58;105902;1277;99311;-67
2022/03/24 07:45:53;;;;;;;45.10;23.20;;;;;;;6.69;34.95;99993.61;105907;1277;108459;-67
2022/03/24 07:48:27;;;;;;;44.60;23.90;;;;;;;6.94;34.97;99985.14;105786;1278;99277;-67
2022/03/24 07:51:00;;;;;;;43.00;23.90;;;;;;;7.42;35.07;99981.64;105890;1277;99214;-68
2022/03/24 07:53:28;;;;;;;42.60;23.20;;;;;;;7.98;35.33;99979.80;105952;1277;111878;-63
2022/03/24 07:55:59;;;;;;;45.20;22.70;;;;;;;8.42;35.34;99976.61;105891;1278;99224;-68
2022/03/24 07:58:30;;;;;;;40.60;22.50;;;;;;;8.78;35.30;99973.30;105840;1277;109801;-64
2022/03/24 08:00:59;;;;;;;40.40;22.20;;;;;;;9.13;35.29;99973.09;106009;1277;99234;-66
2022/03/24 08:03:28;;;;;;;40.40;20.00;;;;;;;9.68;35.41;99968.61;105905;1277;99279;-66
2022/03/24 08:06:02;;;;;;;35.50;20.00;;;;;;;10.04;35.44;99964.88;105834;1277;113328;-67
2022/03/24 08:08:30;;;;;;;35.00;19.80;;;;;;;10.35;35.48;99968.23;105799;1277;99247;-68
2022/03/24 08:11:01;;;;;;;39.50;21.10;;;;;;;10.74;35.35;99966.95;105919;1277;107794;-66
2022/03/24 08:13:32;;;;;;;32.50;19.10;;;;;;;11.52;35.17;99965.60;105891;1277;99314;-67
2022/03/24 08:15:59;;;;;;;33.40;17.90;;;;;;;12.69;35.31;99969.48;105903;1277;99973;-66
2022/03/24 08:18:30;;;;;;;32.20;17.50;;;;;;;13.95;35.44;99961.02;105798;1277;112788;-69
2022/03/24 08:21:00;;;;;;;33.00;18.40;;;;;;;15.18;35.33;99956.36;105882;1277;96888;-68
2022/03/24 08:23:30;;;;;;;32.20;17.80;;;;;;;16.16;35.30;99956.36;105882;1277;108443;-69
2022/03/24 08:26:00;;;;;;;29.10;16.60;;;;;;;17.01;35.23;99953.23;105795;1277;97932;-69
2022/03/24 08:28:28;;;;;;;28.50;15.50;;;;;;;17.80;35.20;99947.83;105827;1277;99211;-68
2022/03/24 08:30:56;;;;;;;30.60;16.20;;;;;;;18.63;35.14;99944.36;105847;1277;113441;-67
2022/03/24 08:33:27;;;;;;;26.60;14.50;;;;;;;19.35;35.09;99944.46;105805;1277;99254;-69
2022/03/24 08:36:01;;;;;;;25.10;14.20;;;;;;;19.88;35.12;99945.91;105851;1277;107856;-69
2022/03/24 08:38:31;;;;;;;23.90;13.10;;;;;;;20.41;34.88;99941.83;105885;1277;99818;-66
2022/03/24 08:40:59;;;;;;;24.70;12.60;;;;;;;20.86;34.74;99942.33;105801;1277;97637;-68
2022/03/24 08:43:28;;;;;;;21.60;10.90;;;;;;;21.27;34.90;99936.19;105819;1277;113316;-68
2022/03/24 08:45:58;;;;;;;22.00;11.00;;;;;;;21.79;34.84;99930.09;105821;1277;97804;-67
2022/03/24 08:48:28;;;;;;;22.90;11.40;;;;;;;22.19;34.85;99930.30;105791;1277;107768;-66
2022/03/24 08:50:56;;;;;;;22.10;11.40;;;;;;;22.73;34.92;99932.08;105867;1278;96656;-67
2022/03/24 08:53:25;;;;;;;23.10;11.00;;;;;;;23.20;34.54;99928.25;105768;1277;100398;-68
2022/03/24 08:55:55;;;;;;;20.00;9.00;;;;;;;23.50;34.42;99928.27;105891;1277;112997;-66
2022/03/24 08:58:24;;;;;;;19.20;8.20;;;;;;;23.89;34.70;99928.25;105842;1277;99292;-68
2022/03/24 09:00:52;;;;;;;21.00;9.60;;;;;;;24.23;34.18;99921.80;105878;1277;108122;-66
2022/03/24 09:03:23;;;;;;;20.00;9.70;;;;;;;24.39;34.27;99924.23;105839;1277;98083;-67
2022/03/24 09:05:53;;;;;;;21.30;10.00;;;;;;;24.47;33.80;99927.63;105874;1277;99201;-66
2022/03/24 09:08:21;;;;;;;19.60;9.50;;;;;;;24.28;33.39;99928.08;105872;1277;112803;-68
2022/03/24 09:10:50;;;;;;;19.80;10.20;;;;;;;24.09;32.50;99935.13;105910;1277;99307;-65
2022/03/24 09:13:21;;;;;;;20.10;10.00;;;;;;;23.61;31.89;99938.77;105787;1277;109600;-67
2022/03/24 09:15:50;;;;;;;20.20;10.10;;;;;;;23.18;32.15;99942.89;105886;1277;97653;-66
2022/03/24 09:18:19;;;;;;;19.50;9.80;;;;;;;22.96;32.20;99940.66;105873;1277;99180;-66
2022/03/24 09:20:48;;;;;;;20.40;10.30;;;;;;;22.83;31.91;99945.68;105857;1278;113439;-63
2022/03/24 09:23:17;;;;;;;21.80;10.50;;;;;;;22.49;30.90;99943.76;105913;1277;99220;-64
2022/03/24 09:25:45;;;;;;;19.60;9.90;;;;;;;22.06;30.87;99943.81;105705;1277;108349;-67
2022/03/24 09:28:16;;;;;;;20.30;10.30;;;;;;;21.93;31.43;99948.85;105875;1277;97522;-64
2022/03/24 09:30:54;;;;;;;21.90;10.20;;;;;;;22.08;31.12;99945.63;105770;1277;97728;-63
2022/03/24 09:33:24;;;;;;;19.90;10.60;;;;;;;22.15;30.90;99947.59;105928;1277;112738;-64
2022/03/24 09:35:54;;;;;;;21.00;9.90;;;;;;;22.27;30.41;99940.33;105858;1275;99214;-66
2022/03/24 09:38:22;;;;;;;19.30;9.20;;;;;;;22.10;30.16;99941.98;105828;1277;108360;-66
2022/03/24 09:40:55;;;;;;;21.20;11.00;;;;;;;22.06;30.02;99937.94;105717;1277;99288;-66
2022/03/24 09:43:26;;;;;;;21.50;10.20;;;;;;;22.24;29.34;99932.11;105806;1278;99275;-67
2022/03/24 09:45:57;;;;;;;23.80;12.50;;;;;;;22.48;30.00;99928.73;105845;1277;112663;-67
2022/03/24 09:48:25;;;;;;;24.30;11.60;;;;;;;22.76;29.30;99935.21;105853;1277;99321;-68
2022/03/24 09:50:58;;;;;;;22.20;10.70;;;;;;;22.84;29.31;99929.27;105817;1277;108599;-67
2022/03/24 09:53:26;;;;;;;21.50;11.70;;;;;;;22.72;28.72;99934.97;105795;1277;99132;-69
2022/03/24 09:55:57;;;;;;;26.70;12.70;;;;;;;22.24;28.56;99934.66;105838;1277;99219;-67
2022/03/24 09:58:27;;;;;;;25.00;12.10;;;;;;;21.99;28.81;99932.30;105839;1277;112646;-67
2022/03/24 10:00:55;;;;;;;23.70;11.70;;;;;;;21.49;28.57;99936.59;105831;1277;100286;-72
2022/03/24 10:03:28;;;;;;;23.70;11.70;;;;;;;20.90;28.78;99939.42;105916;1278;108758;-68
2022/03/24 10:06:02;;;;;;;22.40;11.40;;;;;;;20.66;28.98;99940.91;105985;1277;99178;-68
2022/03/24 10:08:33;;;;;;;23.80;10.90;;;;;;;20.54;28.86;99940.12;105748;1279;99410;-67
2022/03/24 10:11:08;;;;;;;27.00;10.10;;;;;;;20.10;27.73;99940.16;105754;1278;112263;-66
2022/03/24 10:13:51;;;;;;;20.00;8.80;;;;;;;19.31;28.03;99940.75;105913;1277;97584;-66
2022/03/24 10:16:34;;;;;;;19.30;8.10;;;;;;;18.76;27.95;99938.69;105822;1278;109645;-68
2022/03/24 10:19:09;;;;;;;20.50;9.30;;;;;;;18.44;27.82;99941.48;105916;1278;98256;-70
2022/03/24 10:21:41;;;;;;;20.60;8.50;;;;;;;18.13;27.89;99940.23;105980;1278;99106;-68
2022/03/24 10:24:28;;;;;;;19.20;8.80;;;;;;;17.85;27.99;99940.08;105804;1279;113670;-68
2022/03/24 10:27:00;;;;;;;19.80;8.40;;;;;;;17.72;27.97;99939.05;105845;1278;99239;-67
2022/03/24 10:29:33;;;;;;;19.30;8.80;;;;;;;17.57;27.53;99935.11;105825;1278;107936;-68
2022/03/24 10:32:16;;;;;;;22.00;8.20;;;;;;;17.43;27.37;99927.45;105889;1277;97652;-68
2022/03/24 10:34:50;;;;;;;16.60;7.40;;;;;;;17.25;27.48;99937.78;105869;1277;99307;-70
2022/03/24 10:37:19;;;;;;;17.50;7.50;;;;;;;17.09;27.37;99942.54;105835;1278;112825;-69
2022/03/24 10:40:09;;;;;;;17.90;7.80;;;;;;;16.98;27.71;99941.27;105825;1277;99334;-68
2022/03/24 10:42:41;;;;;;;18.90;7.50;;;;;;;16.92;27.42;99939.50;105848;1277;107451;-65
2022/03/24 10:45:15;;;;;;;21.10;7.00;;;;;;;16.79;27.57;99937.19;105985;1277;100296;-69
2022/03/24 10:47:58;;;;;;;16.10;7.10;;;;;;;16.68;27.51;99935.78;105893;1277;99344;-66
2022/03/24 10:50:42;;;;;;;19.10;7.70;;;;;;;16.61;27.48;99933.89;105779;1279;112961;-66
2022/03/24 10:53:15;;;;;;;20.30;7.50;;;;;;;16.48;27.05;99930.84;105876;1279;99326;-66
2022/03/24 10:55:44;;;;;;;19.10;7.00;;;;;;;16.26;27.23;99931.51;105854;1279;108411;-70
2022/03/24 10:58:38;;;;;;;21.50;7.70;;;;;;;16.06;27.23;99931.34;105790;1279;99247;-66
2022/03/24 11:01:10;;;;;;;17.10;6.80;;;;;;;15.92;27.33;99924.95;105835;1279;99243;-67
2022/03/24 11:03:43;;;;;;;18.50;7.40;;;;;;;15.93;27.52;99919.73;105816;1278;113075;-66
2022/03/24 11:06:19;;;;;;;22.50;8.00;;;;;;;15.79;27.15;99917.39;105824;1278;99318;-69
2022/03/24 11:08:54;;;;;;;20.10;6.90;;;;;;;15.54;26.98;99914.26;105817;1278;107018;-67
2022/03/24 11:11:25;;;;;;;18.40;6.70;;;;;;;15.14;26.77;99913.60;105837;1278;99244;-66
2022/03/24 11:13:59;;;;;;;19.30;6.80;;;;;;;14.82;27.05;99914.15;105770;1279;96537;-66
2022/03/24 11:16:32;;;;;;;19.40;6.70;;;;;;;14.75;27.21;99913.26;105951;1277;111488;-66
2022/03/24 11:19:12;;;;;;;18.20;6.60;;;;;;;14.73;27.21;99905.91;105759;1277;97716;-68
2022/03/24 11:21:40;;;;;;;18.70;6.80;;;;;;;14.76;27.35;99905.45;105854;1274;108385;-66
2022/03/24 11:24:08;;;;;;;18.30;5.80;;;;;;;14.84;27.52;99909.84;105830;1277;99297;-68
2022/03/24 11:26:40;;;;;;;13.10;5.30;;;;;;;14.95;27.25;99899.36;105909;1277;99239;-69